LFCK 221130Z AUTO 23004KT 190V270 CAVOK 12/06 Q1034 NOSIG

ElémentsDécodage
LFCK Station météo située sur l'aérodrome de CASTRES Mazamet
221130Z émis le 22 du mois à 11h30 UTC
AUTO Bulletin édité par un automate
23004KT vent du 230°, 04 noeuds
190V270 vent de direction variable entre 190° et 270°
CAVOK Ceiling And Visibility OK
- Visibilité de 10 Km ou plus
- Pas de nuage au-dessous de 1500m ou au-dessous de l'altitude minimale du secteur la plus élevée (si>1500m) et absence de CB
- pas de temps présent significatif
12/06 température 12°C, point de rosée 06°C
 soit une humidité relative de 67%
Q1034 la pression au niveau de la mer (QNH) est de 1034 hPa
NOSIG Pas de changement significatif prévu au cours des deux heures suivant l'heure de l'observation